createdAt,value
2023-02-09T00:02:52.588Z,71.16
2023-02-09T00:07:54.342Z,71.35
2023-02-09T00:13:17.094Z,72.31
2023-02-09T00:18:19.514Z,72.55
2023-02-09T00:23:21.269Z,72.05
2023-02-09T00:28:23.105Z,71.38
2023-02-09T00:33:26.832Z,70.30
2023-02-09T00:38:29.016Z,70.39
2023-02-09T00:43:31.195Z,70.71
2023-02-09T00:48:39.782Z,70.59
2023-02-09T00:53:41.704Z,70.67
2023-02-09T00:58:43.592Z,70.83
2023-02-09T01:03:45.509Z,70.99
2023-02-09T01:08:47.475Z,71.09
2023-02-09T01:13:49.149Z,70.84
2023-02-09T01:18:51.180Z,70.93
2023-02-09T01:23:52.953Z,70.96
2023-02-09T01:28:55.280Z,70.50
2023-02-09T01:33:58.094Z,69.73
2023-02-09T01:39:03.086Z,70.52
2023-02-09T01:44:06.739Z,71.50
2023-02-09T01:49:15.412Z,71.29
2023-02-09T01:54:20.460Z,70.80
2023-02-09T01:59:22.284Z,70.35
2023-02-09T02:04:24.129Z,69.56
2023-02-09T02:09:26.134Z,70.98
2023-02-09T02:14:35.846Z,71.80
2023-02-09T02:19:56.771Z,71.50
2023-02-09T02:25:19.479Z,71.72
2023-02-09T02:30:40.140Z,72.64
2023-02-09T02:35:51.477Z,73.04
2023-02-09T02:40:53.261Z,72.30
2023-02-09T02:46:00.724Z,71.02
2023-02-09T02:51:05.226Z,71.20
2023-02-09T02:56:14.229Z,71.51
2023-02-09T03:01:18.939Z,70.63
2023-02-09T03:06:20.776Z,69.92
2023-02-09T03:11:23.708Z,70.13
2023-02-09T03:16:37.523Z,69.57
2023-02-09T03:21:51.341Z,68.85
2023-02-09T03:26:59.463Z,68.75
2023-02-09T03:32:01.504Z,70.22
2023-02-09T03:37:03.497Z,70.28
2023-02-09T03:42:05.359Z,70.16
2023-02-09T03:47:09.088Z,70.24
2023-02-09T03:52:12.772Z,70.19
2023-02-09T03:57:14.610Z,69.58
2023-02-09T04:02:16.584Z,69.13
2023-02-09T04:07:18.363Z,68.77
2023-02-09T04:12:20.118Z,69.27
2023-02-09T04:17:21.846Z,69.11
2023-02-09T04:22:23.589Z,68.49
2023-02-09T04:27:27.192Z,67.53
2023-02-09T04:32:29.047Z,66.35
2023-02-09T04:37:30.776Z,66.09
2023-02-09T04:42:32.378Z,66.19
2023-02-09T04:47:34.088Z,66.33
2023-02-09T04:52:35.878Z,66.57
2023-02-09T04:57:56.624Z,67.18
2023-02-09T05:02:58.324Z,67.62
2023-02-09T05:08:00.114Z,67.05
2023-02-09T05:13:01.883Z,66.82
2023-02-09T05:18:03.719Z,67.10
2023-02-09T05:23:05.509Z,66.77
2023-02-09T05:28:07.468Z,66.16
2023-02-09T05:33:09.562Z,65.41
2023-02-09T05:38:11.205Z,65.98
2023-02-09T05:43:13.073Z,66.59
2023-02-09T05:48:15.073Z,67.29
2023-02-09T05:53:17.120Z,67.67
2023-02-09T05:58:18.856Z,68.06
2023-02-09T06:03:20.676Z,68.33
2023-02-09T06:08:22.596Z,68.51
2023-02-09T06:13:24.561Z,68.70
2023-02-09T06:18:26.561Z,68.85
2023-02-09T06:23:28.348Z,68.82
2023-02-09T06:28:30.131Z,68.41
2023-02-09T06:33:32.588Z,68.47
2023-02-09T06:38:35.259Z,68.26
2023-02-09T06:47:58.358Z,68.48
2023-02-09T06:53:00.962Z,68.83
2023-02-09T06:58:03.274Z,68.63
2023-02-09T07:03:05.033Z,67.98
2023-02-09T07:08:06.835Z,67.31
2023-02-09T07:13:08.427Z,66.95
2023-02-09T07:18:15.913Z,66.89
2023-02-09T07:23:17.508Z,66.64
2023-02-09T07:28:22.968Z,66.62
2023-02-09T07:33:24.733Z,66.49
2023-02-09T07:38:26.306Z,66.15
2023-02-09T07:43:28.412Z,65.83
2023-02-09T07:48:30.649Z,65.53
2023-02-09T07:53:33.306Z,65.36
2023-02-09T07:58:35.184Z,65.15
2023-02-09T08:03:37.824Z,64.85
2023-02-09T08:08:39.473Z,64.55
2023-02-09T08:13:41.678Z,64.21
2023-02-09T08:18:50.378Z,63.98
2023-02-09T08:23:55.592Z,63.51
2023-02-09T08:28:58.009Z,63.15
2023-02-09T08:33:59.917Z,62.81
2023-02-09T08:39:03.194Z,62.42
2023-02-09T08:44:05.049Z,61.97
2023-02-09T08:49:06.727Z,61.75
2023-02-09T08:54:08.345Z,61.32
2023-02-09T08:59:10.481Z,61.15
2023-02-09T09:04:12.378Z,60.62
2023-02-09T09:09:14.645Z,60.21
2023-02-09T09:14:16.326Z,59.53
2023-02-09T09:19:18.003Z,60.37
2023-02-09T09:24:19.950Z,61.13
2023-02-09T09:29:21.855Z,61.66
2023-02-09T09:34:23.541Z,61.32
2023-02-09T09:39:25.767Z,61.66
2023-02-09T09:44:40.927Z,61.25
2023-02-09T09:49:43.153Z,60.70
2023-02-09T09:54:45.743Z,60.08
2023-02-09T09:59:47.708Z,59.01
2023-02-09T10:04:50.135Z,59.71
2023-02-09T10:10:02.490Z,59.16
2023-02-09T10:15:29.098Z,58.51
2023-02-09T10:20:52.516Z,58.23
2023-02-09T10:26:00.825Z,57.32
2023-02-09T10:31:10.251Z,56.08
2023-02-09T10:36:36.578Z,55.33
2023-02-09T10:41:41.948Z,54.50
2023-02-09T10:46:44.132Z,53.39
2023-02-09T10:51:45.798Z,53.63
2023-02-09T10:56:49.321Z,53.86
2023-02-09T11:02:02.191Z,53.32
2023-02-09T11:07:10.197Z,52.88
2023-02-09T11:12:13.080Z,52.54
2023-02-09T11:17:40.064Z,51.96
2023-02-09T11:23:14.896Z,52.58
2023-02-09T11:28:47.983Z,51.53
2023-02-09T11:33:57.555Z,51.67
2023-02-09T11:39:03.078Z,51.70
2023-02-09T11:44:07.806Z,51.40
2023-02-09T11:49:17.951Z,50.54
2023-02-09T11:54:27.249Z,49.95
2023-02-09T11:59:39.082Z,49.68
2023-02-09T12:04:54.568Z,47.45
2023-02-09T12:10:34.180Z,47.17
2023-02-09T12:15:44.000Z,46.12
2023-02-09T12:21:00.766Z,45.70
2023-02-09T12:26:36.214Z,44.62
2023-02-09T12:32:03.250Z,44.59
2023-02-09T12:37:14.365Z,44.31
2023-02-09T12:42:16.033Z,44.26
2023-02-09T12:47:45.612Z,44.91
2023-02-09T12:53:21.886Z,45.47
2023-02-09T12:58:35.197Z,44.96
2023-02-09T13:03:56.077Z,44.06
2023-02-09T13:09:02.333Z,43.64
2023-02-09T13:14:07.658Z,44.34
2023-02-09T13:19:47.030Z,44.49
2023-02-09T13:25:00.823Z,44.64
2023-02-09T13:30:02.528Z,44.92
2023-02-09T13:35:25.832Z,44.78
2023-02-09T13:40:35.048Z,44.82
2023-02-09T13:45:51.206Z,45.38
2023-02-09T13:50:55.247Z,45.29
2023-02-09T13:56:00.401Z,45.13
2023-02-09T14:01:35.906Z,45.10
2023-02-09T14:07:01.668Z,44.76
2023-02-09T14:12:09.723Z,44.90
2023-02-09T14:17:25.244Z,45.26
2023-02-09T14:22:30.887Z,45.47
2023-02-09T14:27:34.820Z,45.58
2023-02-09T14:32:40.464Z,46.08
2023-02-09T14:37:43.751Z,45.74
2023-02-09T14:43:03.698Z,45.55
2023-02-09T14:48:20.778Z,46.15
2023-02-09T14:53:24.768Z,47.39
2023-02-09T14:58:31.916Z,47.12
2023-02-09T15:03:33.698Z,46.33
2023-02-09T15:08:38.029Z,46.63
2023-02-09T15:13:40.184Z,46.19
2023-02-09T15:18:42.199Z,46.44
2023-02-09T15:23:44.044Z,47.51
2023-02-09T15:28:46.170Z,47.81
2023-02-09T15:33:47.946Z,47.77
2023-02-09T15:38:49.677Z,48.49
2023-02-09T15:44:10.348Z,49.30
2023-02-09T15:49:12.273Z,49.92
2023-02-09T15:54:19.908Z,50.55
2023-02-09T15:59:23.502Z,51.17
2023-02-09T16:04:25.331Z,51.80
2023-02-09T16:09:29.147Z,52.24
2023-02-09T16:14:31.821Z,52.86
2023-02-09T16:19:33.924Z,53.21
2023-02-09T16:24:45.221Z,53.45
2023-02-09T16:29:47.061Z,53.83
2023-02-09T16:34:49.769Z,54.58
2023-02-09T16:39:51.556Z,55.09
2023-02-09T16:44:53.560Z,55.59
2023-02-09T16:50:02.720Z,56.10
2023-02-09T16:55:07.101Z,56.61
2023-02-09T17:00:09.914Z,56.87
2023-02-09T17:05:21.725Z,56.95
2023-02-09T17:10:28.429Z,57.14
2023-02-09T17:15:36.420Z,57.47
2023-02-09T17:20:43.261Z,57.63
2023-02-09T17:25:45.878Z,57.87
2023-02-09T17:30:49.703Z,58.06
2023-02-09T17:36:23.672Z,58.13
2023-02-09T17:41:17.862Z,58.27
2023-02-09T17:46:20.300Z,58.58
2023-02-09T17:51:30.597Z,58.81
2023-02-09T17:56:32.717Z,59.18
2023-02-09T18:01:41.016Z,59.52
2023-02-09T18:06:43.222Z,59.72
2023-02-09T18:11:44.947Z,59.84
2023-02-09T18:16:47.862Z,60.15
2023-02-09T18:21:54.053Z,60.35
2023-02-09T18:26:56.031Z,60.37
2023-02-09T18:32:03.245Z,60.77
2023-02-09T18:37:05.235Z,61.10
2023-02-09T18:42:11.451Z,61.39
2023-02-09T18:47:13.388Z,61.69
2023-02-09T18:52:17.279Z,62.16
2023-02-09T18:57:19.046Z,61.84
2023-02-09T19:02:20.752Z,60.29
2023-02-09T19:07:22.456Z,59.50
2023-02-09T19:12:26.212Z,60.54
2023-02-09T19:17:29.853Z,61.56
2023-02-09T19:22:32.113Z,62.16
2023-02-09T19:27:34.052Z,62.22
2023-02-09T19:32:38.183Z,60.76
2023-02-09T19:37:42.207Z,58.57
2023-02-09T19:42:44.413Z,59.83
2023-02-09T19:47:46.238Z,60.78
2023-02-09T19:52:49.108Z,61.41
2023-02-09T19:57:50.886Z,61.68
2023-02-09T20:02:52.609Z,61.64
2023-02-09T20:07:54.474Z,61.83
2023-02-09T20:12:56.375Z,61.86
2023-02-09T20:17:58.454Z,61.70
2023-02-09T20:23:00.331Z,61.65
2023-02-09T20:28:02.352Z,61.76
2023-02-09T20:33:04.106Z,61.89
2023-02-09T20:38:05.751Z,61.96
2023-02-09T20:43:26.449Z,61.95
2023-02-09T20:48:28.373Z,62.10
2023-02-09T20:53:30.362Z,62.37
2023-02-09T20:58:32.029Z,61.91
2023-02-09T21:03:33.720Z,58.48
2023-02-09T21:08:38.210Z,59.19
2023-02-09T21:13:41.242Z,60.74
2023-02-09T21:18:44.376Z,62.05
2023-02-09T21:23:46.656Z,61.97
2023-02-09T21:28:48.681Z,59.57
2023-02-09T21:33:50.412Z,59.74
2023-02-09T21:38:52.292Z,60.89
2023-02-09T21:43:53.860Z,61.31
2023-02-09T21:48:56.254Z,61.38
2023-02-09T21:53:58.018Z,61.49
2023-02-09T21:58:59.925Z,61.56
2023-02-09T22:04:02.221Z,62.03
2023-02-09T22:09:06.256Z,62.29
2023-02-09T22:14:11.901Z,62.15
2023-02-09T22:19:13.843Z,60.54
2023-02-09T22:24:16.767Z,59.94
2023-02-09T22:29:18.749Z,59.77
2023-02-09T22:34:20.459Z,59.80
2023-02-09T22:39:22.501Z,60.04
2023-02-09T22:44:26.618Z,60.22
2023-02-09T22:49:28.598Z,60.53
2023-02-09T22:54:30.522Z,60.57
2023-02-09T22:59:32.313Z,60.59
2023-02-09T23:04:34.059Z,60.77
2023-02-09T23:09:35.743Z,60.71
2023-02-09T23:14:37.482Z,60.67
2023-02-09T23:19:40.314Z,61.10
2023-02-09T23:24:42.105Z,61.42
2023-02-09T23:29:43.913Z,61.59
2023-02-09T23:34:45.570Z,61.83
2023-02-09T23:39:47.346Z,61.94
2023-02-09T23:44:49.072Z,62.13
2023-02-09T23:49:50.827Z,61.96
2023-02-09T23:54:52.614Z,62.18
2023-02-09T23:59:54.285Z,62.13
